sensor_id;sensor_type;location;lat;lon;timestamp;temperature;humidity
43772;HTU21D;59066;54.782;32.024;2023-08-20T00:00:01;23.65;85.71
43772;HTU21D;59066;54.782;32.024;2023-08-20T00:02:37;23.71;85.56
43772;HTU21D;59066;54.782;32.024;2023-08-20T00:05:09;23.67;85.56
43772;HTU21D;59066;54.782;32.024;2023-08-20T00:07:37;23.64;86.02
43772;HTU21D;59066;54.782;32.024;2023-08-20T00:10:05;23.65;86.70
43772;HTU21D;59066;54.782;32.024;2023-08-20T00:12:33;23.61;86.58
43772;HTU21D;59066;54.782;32.024;2023-08-20T00:15:04;23.62;86.08
43772;HTU21D;59066;54.782;32.024;2023-08-20T00:17:34;23.65;85.95
43772;HTU21D;59066;54.782;32.024;2023-08-20T00:20:03;23.68;86.22
43772;HTU21D;59066;54.782;32.024;2023-08-20T00:22:37;23.72;86.30
43772;HTU21D;59066;54.782;32.024;2023-08-20T00:25:05;23.75;86.28
43772;HTU21D;59066;54.782;32.024;2023-08-20T00:27:33;23.76;86.11
43772;HTU21D;59066;54.782;32.024;2023-08-20T00:30:01;23.77;86.25
43772;HTU21D;59066;54.782;32.024;2023-08-20T00:32:29;23.79;86.16
43772;HTU21D;59066;54.782;32.024;2023-08-20T00:34:56;23.77;85.88
43772;HTU21D;59066;54.782;32.024;2023-08-20T00:37:25;23.68;86.51
43772;HTU21D;59066;54.782;32.024;2023-08-20T00:39:52;23.64;86.70
43772;HTU21D;59066;54.782;32.024;2023-08-20T00:42:20;23.60;86.67
43772;HTU21D;59066;54.782;32.024;2023-08-20T00:44:48;23.56;86.49
43772;HTU21D;59066;54.782;32.024;2023-08-20T00:47:16;23.56;86.48
43772;HTU21D;59066;54.782;32.024;2023-08-20T00:49:45;23.59;86.70
43772;HTU21D;59066;54.782;32.024;2023-08-20T00:52:14;23.65;86.24
43772;HTU21D;59066;54.782;32.024;2023-08-20T00:54:44;23.67;86.08
43772;HTU21D;59066;54.782;32.024;2023-08-20T00:57:13;23.68;85.84
43772;HTU21D;59066;54.782;32.024;2023-08-20T00:59:43;23.71;86.11
43772;HTU21D;59066;54.782;32.024;2023-08-20T01:02:11;23.69;85.66
43772;HTU21D;59066;54.782;32.024;2023-08-20T01:04:39;23.69;85.56
43772;HTU21D;59066;54.782;32.024;2023-08-20T01:12:21;23.71;86.32
43772;HTU21D;59066;54.782;32.024;2023-08-20T01:14:50;23.81;86.69
43772;HTU21D;59066;54.782;32.024;2023-08-20T01:17:18;23.69;86.79
43772;HTU21D;59066;54.782;32.024;2023-08-20T01:19:46;23.55;87.10
43772;HTU21D;59066;54.782;32.024;2023-08-20T01:28:38;23.62;87.32
43772;HTU21D;59066;54.782;32.024;2023-08-20T01:30:43;23.66;87.29
43772;HTU21D;59066;54.782;32.024;2023-08-20T01:33:11;23.68;87.24
43772;HTU21D;59066;54.782;32.024;2023-08-20T01:35:42;23.72;86.83
43772;HTU21D;59066;54.782;32.024;2023-08-20T01:38:16;23.79;86.72
43772;HTU21D;59066;54.782;32.024;2023-08-20T01:40:43;23.83;87.04
43772;HTU21D;59066;54.782;32.024;2023-08-20T01:43:11;23.86;86.80
43772;HTU21D;59066;54.782;32.024;2023-08-20T01:45:38;23.89;86.61
43772;HTU21D;59066;54.782;32.024;2023-08-20T01:48:06;23.83;86.25
43772;HTU21D;59066;54.782;32.024;2023-08-20T01:50:35;23.79;85.45
43772;HTU21D;59066;54.782;32.024;2023-08-20T01:53:02;23.80;85.71
43772;HTU21D;59066;54.782;32.024;2023-08-20T01:55:30;23.76;84.58
43772;HTU21D;59066;54.782;32.024;2023-08-20T01:57:59;23.67;84.12
43772;HTU21D;59066;54.782;32.024;2023-08-20T02:00:26;23.58;84.15
43772;HTU21D;59066;54.782;32.024;2023-08-20T02:02:57;23.53;84.42
43772;HTU21D;59066;54.782;32.024;2023-08-20T02:05:25;23.46;85.35
43772;HTU21D;59066;54.782;32.024;2023-08-20T02:07:54;23.41;85.63
43772;HTU21D;59066;54.782;32.024;2023-08-20T02:10:21;23.36;84.92
43772;HTU21D;59066;54.782;32.024;2023-08-20T02:12:49;23.35;85.45
43772;HTU21D;59066;54.782;32.024;2023-08-20T02:15:16;23.32;85.96
43772;HTU21D;59066;54.782;32.024;2023-08-20T02:17:44;23.27;85.10
43772;HTU21D;59066;54.782;32.024;2023-08-20T02:20:14;23.17;85.29
43772;HTU21D;59066;54.782;32.024;2023-08-20T02:22:44;23.15;85.83
43772;HTU21D;59066;54.782;32.024;2023-08-20T02:25:11;23.09;85.60
43772;HTU21D;59066;54.782;32.024;2023-08-20T02:27:39;23.09;86.38
43772;HTU21D;59066;54.782;32.024;2023-08-20T02:30:07;23.21;87.12
43772;HTU21D;59066;54.782;32.024;2023-08-20T02:32:35;23.22;86.32
43772;HTU21D;59066;54.782;32.024;2023-08-20T02:35:02;23.10;86.23
43772;HTU21D;59066;54.782;32.024;2023-08-20T02:37:32;23.00;86.76
43772;HTU21D;59066;54.782;32.024;2023-08-20T02:40:00;22.99;86.86
43772;HTU21D;59066;54.782;32.024;2023-08-20T02:42:27;23.02;86.88
43772;HTU21D;59066;54.782;32.024;2023-08-20T02:44:55;22.95;86.53
43772;HTU21D;59066;54.782;32.024;2023-08-20T02:47:24;22.84;85.96
43772;HTU21D;59066;54.782;32.024;2023-08-20T02:49:52;22.76;86.29
43772;HTU21D;59066;54.782;32.024;2023-08-20T02:52:20;22.69;86.31
43772;HTU21D;59066;54.782;32.024;2023-08-20T02:54:47;22.71;87.36
43772;HTU21D;59066;54.782;32.024;2023-08-20T02:57:15;22.69;87.05
43772;HTU21D;59066;54.782;32.024;2023-08-20T02:59:42;22.70;87.48
43772;HTU21D;59066;54.782;32.024;2023-08-20T03:02:09;22.81;88.00
43772;HTU21D;59066;54.782;32.024;2023-08-20T03:04:37;22.91;88.11
43772;HTU21D;59066;54.782;32.024;2023-08-20T03:07:04;22.98;87.87
43772;HTU21D;59066;54.782;32.024;2023-08-20T03:09:34;23.10;88.18
43772;HTU21D;59066;54.782;32.024;2023-08-20T03:12:02;23.20;88.11
43772;HTU21D;59066;54.782;32.024;2023-08-20T03:14:29;23.28;88.34
43772;HTU21D;59066;54.782;32.024;2023-08-20T03:16:57;23.37;88.24
43772;HTU21D;59066;54.782;32.024;2023-08-20T03:19:24;23.41;87.97
43772;HTU21D;59066;54.782;32.024;2023-08-20T03:21:52;23.43;88.15
43772;HTU21D;59066;54.782;32.024;2023-08-20T03:24:19;23.39;88.15
43772;HTU21D;59066;54.782;32.024;2023-08-20T03:26:46;23.27;88.42
43772;HTU21D;59066;54.782;32.024;2023-08-20T03:29:15;23.28;87.72
43772;HTU21D;59066;54.782;32.024;2023-08-20T03:31:42;23.29;87.15
43772;HTU21D;59066;54.782;32.024;2023-08-20T03:34:10;23.22;85.41
43772;HTU21D;59066;54.782;32.024;2023-08-20T03:36:37;23.23;86.67
43772;HTU21D;59066;54.782;32.024;2023-08-20T03:39:05;23.22;85.98
43772;HTU21D;59066;54.782;32.024;2023-08-20T03:41:33;23.22;86.29
43772;HTU21D;59066;54.782;32.024;2023-08-20T03:44:00;23.25;86.20
43772;HTU21D;59066;54.782;32.024;2023-08-20T03:46:28;23.25;86.63
43772;HTU21D;59066;54.782;32.024;2023-08-20T03:48:57;23.31;86.67
43772;HTU21D;59066;54.782;32.024;2023-08-20T03:51:24;23.37;87.10
43772;HTU21D;59066;54.782;32.024;2023-08-20T03:53:52;23.41;87.19
43772;HTU21D;59066;54.782;32.024;2023-08-20T03:56:21;23.49;87.46
43772;HTU21D;59066;54.782;32.024;2023-08-20T03:58:49;23.52;87.65
43772;HTU21D;59066;54.782;32.024;2023-08-20T04:01:16;23.57;87.51
43772;HTU21D;59066;54.782;32.024;2023-08-20T04:03:45;23.51;87.41
43772;HTU21D;59066;54.782;32.024;2023-08-20T04:06:14;23.32;87.57
43772;HTU21D;59066;54.782;32.024;2023-08-20T04:08:42;23.25;87.60
43772;HTU21D;59066;54.782;32.024;2023-08-20T04:11:10;23.24;88.02
43772;HTU21D;59066;54.782;32.024;2023-08-20T04:13:39;23.23;88.12
43772;HTU21D;59066;54.782;32.024;2023-08-20T04:16:07;23.13;87.42
43772;HTU21D;59066;54.782;32.024;2023-08-20T04:18:34;23.00;88.03
43772;HTU21D;59066;54.782;32.024;2023-08-20T04:21:02;23.06;88.58
43772;HTU21D;59066;54.782;32.024;2023-08-20T04:23:29;23.07;88.06
43772;HTU21D;59066;54.782;32.024;2023-08-20T04:25:56;23.00;88.39
43772;HTU21D;59066;54.782;32.024;2023-08-20T04:28:24;23.11;88.41
43772;HTU21D;59066;54.782;32.024;2023-08-20T04:30:52;23.18;88.02
43772;HTU21D;59066;54.782;32.024;2023-08-20T04:33:23;23.21;88.28
43772;HTU21D;59066;54.782;32.024;2023-08-20T04:35:51;23.28;88.33
43772;HTU21D;59066;54.782;32.024;2023-08-20T04:38:19;23.37;88.28
43772;HTU21D;59066;54.782;32.024;2023-08-20T04:40:48;23.39;87.77
43772;HTU21D;59066;54.782;32.024;2023-08-20T04:43:15;23.40;88.25
43772;HTU21D;59066;54.782;32.024;2023-08-20T04:45:43;23.47;88.35
43772;HTU21D;59066;54.782;32.024;2023-08-20T04:48:11;23.57;88.03
43772;HTU21D;59066;54.782;32.024;2023-08-20T04:50:39;23.67;88.26
43772;HTU21D;59066;54.782;32.024;2023-08-20T04:53:07;23.79;88.12
43772;HTU21D;59066;54.782;32.024;2023-08-20T04:55:35;23.90;87.96
43772;HTU21D;59066;54.782;32.024;2023-08-20T04:58:02;24.01;87.35
43772;HTU21D;59066;54.782;32.024;2023-08-20T05:00:32;24.08;87.53
43772;HTU21D;59066;54.782;32.024;2023-08-20T05:03:15;24.04;87.03
43772;HTU21D;59066;54.782;32.024;2023-08-20T05:05:49;24.14;87.54
43772;HTU21D;59066;54.782;32.024;2023-08-20T05:08:16;24.21;87.44
43772;HTU21D;59066;54.782;32.024;2023-08-20T05:10:44;24.30;86.86
43772;HTU21D;59066;54.782;32.024;2023-08-20T05:13:11;24.28;86.93
43772;HTU21D;59066;54.782;32.024;2023-08-20T05:15:39;24.19;86.06
43772;HTU21D;59066;54.782;32.024;2023-08-20T05:18:07;24.08;85.40
43772;HTU21D;59066;54.782;32.024;2023-08-20T05:20:34;23.99;85.49
43772;HTU21D;59066;54.782;32.024;2023-08-20T05:23:02;23.92;84.07
43772;HTU21D;59066;54.782;32.024;2023-08-20T05:25:31;23.82;83.52
43772;HTU21D;59066;54.782;32.024;2023-08-20T05:27:58;23.88;84.82
43772;HTU21D;59066;54.782;32.024;2023-08-20T05:30:27;23.95;84.96
43772;HTU21D;59066;54.782;32.024;2023-08-20T05:32:55;24.06;85.39
43772;HTU21D;59066;54.782;32.024;2023-08-20T05:35:23;24.17;85.30
43772;HTU21D;59066;54.782;32.024;2023-08-20T05:37:50;24.25;85.32
43772;HTU21D;59066;54.782;32.024;2023-08-20T05:40:18;24.24;84.92
43772;HTU21D;59066;54.782;32.024;2023-08-20T05:42:46;24.28;85.34
43772;HTU21D;59066;54.782;32.024;2023-08-20T05:45:15;24.28;84.78
43772;HTU21D;59066;54.782;32.024;2023-08-20T05:47:44;24.30;85.16
43772;HTU21D;59066;54.782;32.024;2023-08-20T05:50:12;24.25;84.35
43772;HTU21D;59066;54.782;32.024;2023-08-20T05:52:39;24.23;84.72
43772;HTU21D;59066;54.782;32.024;2023-08-20T05:55:07;24.15;84.45
43772;HTU21D;59066;54.782;32.024;2023-08-20T05:57:35;24.14;84.45
43772;HTU21D;59066;54.782;32.024;2023-08-20T06:00:05;24.06;84.16
43772;HTU21D;59066;54.782;32.024;2023-08-20T06:02:38;23.97;84.35
43772;HTU21D;59066;54.782;32.024;2023-08-20T06:05:07;24.01;85.67
43772;HTU21D;59066;54.782;32.024;2023-08-20T06:07:35;23.95;85.34
43772;HTU21D;59066;54.782;32.024;2023-08-20T06:10:03;23.87;85.06
43772;HTU21D;59066;54.782;32.024;2023-08-20T06:12:30;23.84;85.50
43772;HTU21D;59066;54.782;32.024;2023-08-20T06:14:57;23.84;85.82
43772;HTU21D;59066;54.782;32.024;2023-08-20T06:17:25;23.82;85.95
43772;HTU21D;59066;54.782;32.024;2023-08-20T06:19:52;23.84;85.95
43772;HTU21D;59066;54.782;32.024;2023-08-20T06:22:20;23.82;86.03
43772;HTU21D;59066;54.782;32.024;2023-08-20T06:24:47;23.76;85.58
43772;HTU21D;59066;54.782;32.024;2023-08-20T06:27:15;23.84;86.42
43772;HTU21D;59066;54.782;32.024;2023-08-20T06:29:42;23.79;86.03
43772;HTU21D;59066;54.782;32.024;2023-08-20T06:32:10;23.72;85.01
43772;HTU21D;59066;54.782;32.024;2023-08-20T06:34:37;23.68;85.20
43772;HTU21D;59066;54.782;32.024;2023-08-20T06:37:05;23.52;84.46
43772;HTU21D;59066;54.782;32.024;2023-08-20T06:39:32;23.47;85.60
43772;HTU21D;59066;54.782;32.024;2023-08-20T06:42:00;23.50;86.25
43772;HTU21D;59066;54.782;32.024;2023-08-20T06:44:29;23.49;86.22
43772;HTU21D;59066;54.782;32.024;2023-08-20T06:46:57;23.43;85.94
43772;HTU21D;59066;54.782;32.024;2023-08-20T06:49:24;23.35;86.32
43772;HTU21D;59066;54.782;32.024;2023-08-20T06:51:52;23.37;87.35
43772;HTU21D;59066;54.782;32.024;2023-08-20T06:54:19;23.37;86.82
43772;HTU21D;59066;54.782;32.024;2023-08-20T06:56:47;23.32;86.20
43772;HTU21D;59066;54.782;32.024;2023-08-20T06:59:16;23.30;87.06
43772;HTU21D;59066;54.782;32.024;2023-08-20T07:01:44;23.28;86.59
43772;HTU21D;59066;54.782;32.024;2023-08-20T07:04:12;23.24;87.02
43772;HTU21D;59066;54.782;32.024;2023-08-20T07:06:39;23.27;87.59
43772;HTU21D;59066;54.782;32.024;2023-08-20T07:09:07;23.31;87.36
43772;HTU21D;59066;54.782;32.024;2023-08-20T07:11:34;23.25;86.48
43772;HTU21D;59066;54.782;32.024;2023-08-20T07:14:02;23.30;87.36
43772;HTU21D;59066;54.782;32.024;2023-08-20T07:16:31;23.27;86.84
43772;HTU21D;59066;54.782;32.024;2023-08-20T07:18:59;23.27;86.79
43772;HTU21D;59066;54.782;32.024;2023-08-20T07:21:26;23.16;86.48
43772;HTU21D;59066;54.782;32.024;2023-08-20T07:23:54;23.14;86.97
43772;HTU21D;59066;54.782;32.024;2023-08-20T07:26:21;23.08;87.36
43772;HTU21D;59066;54.782;32.024;2023-08-20T07:28:50;23.06;88.01
43772;HTU21D;59066;54.782;32.024;2023-08-20T07:31:31;23.03;87.70
43772;HTU21D;59066;54.782;32.024;2023-08-20T07:34:00;22.95;87.51
43772;HTU21D;59066;54.782;32.024;2023-08-20T07:36:31;22.91;87.96
43772;HTU21D;59066;54.782;32.024;2023-08-20T07:38:59;22.91;87.74
43772;HTU21D;59066;54.782;32.024;2023-08-20T07:41:28;22.95;88.44
43772;HTU21D;59066;54.782;32.024;2023-08-20T07:43:55;22.94;88.17
43772;HTU21D;59066;54.782;32.024;2023-08-20T07:46:23;22.98;87.97
43772;HTU21D;59066;54.782;32.024;2023-08-20T07:48:50;23.12;88.37
43772;HTU21D;59066;54.782;32.024;2023-08-20T07:51:20;23.36;88.66
43772;HTU21D;59066;54.782;32.024;2023-08-20T07:53:47;23.67;89.15
43772;HTU21D;59066;54.782;32.024;2023-08-20T07:56:15;24.04;89.93
43772;HTU21D;59066;54.782;32.024;2023-08-20T07:58:42;24.31;88.80
43772;HTU21D;59066;54.782;32.024;2023-08-20T08:01:10;24.38;88.89
43772;HTU21D;59066;54.782;32.024;2023-08-20T08:03:37;24.60;88.95
43772;HTU21D;59066;54.782;32.024;2023-08-20T08:06:05;24.85;88.60
43772;HTU21D;59066;54.782;32.024;2023-08-20T08:08:33;25.03;88.04
43772;HTU21D;59066;54.782;32.024;2023-08-20T08:11:00;25.17;86.73
43772;HTU21D;59066;54.782;32.024;2023-08-20T08:13:28;25.17;84.64
43772;HTU21D;59066;54.782;32.024;2023-08-20T08:15:55;25.28;85.32
43772;HTU21D;59066;54.782;32.024;2023-08-20T08:18:22;25.30;85.54
43772;HTU21D;59066;54.782;32.024;2023-08-20T08:20:50;25.53;85.96
43772;HTU21D;59066;54.782;32.024;2023-08-20T08:23:18;25.75;85.38
43772;HTU21D;59066;54.782;32.024;2023-08-20T08:25:45;25.84;84.45
43772;HTU21D;59066;54.782;32.024;2023-08-20T08:28:12;25.97;83.96
43772;HTU21D;59066;54.782;32.024;2023-08-20T08:30:40;26.03;82.38
43772;HTU21D;59066;54.782;32.024;2023-08-20T08:33:08;26.02;82.22
43772;HTU21D;59066;54.782;32.024;2023-08-20T08:35:35;26.11;83.05
43772;HTU21D;59066;54.782;32.024;2023-08-20T08:38:03;26.30;83.15
43772;HTU21D;59066;54.782;32.024;2023-08-20T08:40:33;26.56;83.51
43772;HTU21D;59066;54.782;32.024;2023-08-20T08:43:01;26.71;83.08
43772;HTU21D;59066;54.782;32.024;2023-08-20T08:45:29;26.78;82.42
43772;HTU21D;59066;54.782;32.024;2023-08-20T08:47:59;27.07;83.72
43772;HTU21D;59066;54.782;32.024;2023-08-20T08:50:27;27.42;83.70
43772;HTU21D;59066;54.782;32.024;2023-08-20T08:52:55;27.56;82.50
43772;HTU21D;59066;54.782;32.024;2023-08-20T08:55:23;27.35;79.67
43772;HTU21D;59066;54.782;32.024;2023-08-20T08:57:53;27.19;80.83
43772;HTU21D;59066;54.782;32.024;2023-08-20T09:00:20;26.98;79.98
43772;HTU21D;59066;54.782;32.024;2023-08-20T09:02:48;27.02;81.46
43772;HTU21D;59066;54.782;32.024;2023-08-20T09:05:15;26.83;78.93
43772;HTU21D;59066;54.782;32.024;2023-08-20T09:07:43;26.71;79.31
43772;HTU21D;59066;54.782;32.024;2023-08-20T09:10:11;26.72;80.57
43772;HTU21D;59066;54.782;32.024;2023-08-20T09:12:39;26.80;80.90
43772;HTU21D;59066;54.782;32.024;2023-08-20T09:15:10;26.92;80.86
43772;HTU21D;59066;54.782;32.024;2023-08-20T09:17:40;27.30;82.00
43772;HTU21D;59066;54.782;32.024;2023-08-20T09:20:07;27.63;81.96
43772;HTU21D;59066;54.782;32.024;2023-08-20T09:22:36;27.73;81.78
43772;HTU21D;59066;54.782;32.024;2023-08-20T09:25:04;27.90;81.86
43772;HTU21D;59066;54.782;32.024;2023-08-20T09:27:38;27.98;80.11
43772;HTU21D;59066;54.782;32.024;2023-08-20T09:30:10;27.82;80.24
43772;HTU21D;59066;54.782;32.024;2023-08-20T09:32:42;27.63;79.75
43772;HTU21D;59066;54.782;32.024;2023-08-20T09:35:18;27.52;79.09
43772;HTU21D;59066;54.782;32.024;2023-08-20T09:37:45;27.41;80.44
43772;HTU21D;59066;54.782;32.024;2023-08-20T09:40:13;27.42;80.56
43772;HTU21D;59066;54.782;32.024;2023-08-20T09:42:41;27.64;80.40
43772;HTU21D;59066;54.782;32.024;2023-08-20T09:45:10;27.55;80.23
43772;HTU21D;59066;54.782;32.024;2023-08-20T09:47:38;27.67;81.02
43772;HTU21D;59066;54.782;32.024;2023-08-20T09:50:10;27.89;80.44
43772;HTU21D;59066;54.782;32.024;2023-08-20T09:52:51;28.28;78.74
43772;HTU21D;59066;54.782;32.024;2023-08-20T09:55:21;28.65;81.64
43772;HTU21D;59066;54.782;32.024;2023-08-20T09:57:49;28.92;81.24
43772;HTU21D;59066;54.782;32.024;2023-08-20T10:00:18;29.17;80.83
43772;HTU21D;59066;54.782;32.024;2023-08-20T10:02:45;29.34;80.75
43772;HTU21D;59066;54.782;32.024;2023-08-20T10:05:14;29.58;80.33
43772;HTU21D;59066;54.782;32.024;2023-08-20T10:07:42;29.71;79.11
43772;HTU21D;59066;54.782;32.024;2023-08-20T10:10:10;29.92;80.13
43772;HTU21D;59066;54.782;32.024;2023-08-20T10:12:41;30.36;80.69
43772;HTU21D;59066;54.782;32.024;2023-08-20T10:15:10;30.89;81.42
43772;HTU21D;59066;54.782;32.024;2023-08-20T10:17:39;31.00;78.11
43772;HTU21D;59066;54.782;32.024;2023-08-20T10:20:08;30.85;77.75
43772;HTU21D;59066;54.782;32.024;2023-08-20T10:22:42;30.75;76.47
43772;HTU21D;59066;54.782;32.024;2023-08-20T10:25:22;30.57;70.08
43772;HTU21D;59066;54.782;32.024;2023-08-20T10:27:50;30.38;75.28
43772;HTU21D;59066;54.782;32.024;2023-08-20T10:30:19;30.19;74.67
43772;HTU21D;59066;54.782;32.024;2023-08-20T10:35:19;29.78;74.90
43772;HTU21D;59066;54.782;32.024;2023-08-20T10:38:13;29.82;69.68
43772;HTU21D;59066;54.782;32.024;2023-08-20T10:40:49;30.30;77.08
43772;HTU21D;59066;54.782;32.024;2023-08-20T10:46:27;31.35;67.48
43772;HTU21D;59066;54.782;32.024;2023-08-20T10:49:00;31.89;78.81
43772;HTU21D;59066;54.782;32.024;2023-08-20T10:56:45;32.94;67.04
43772;HTU21D;59066;54.782;32.024;2023-08-20T10:59:26;32.72;65.33
43772;HTU21D;59066;54.782;32.024;2023-08-20T11:01:56;32.50;73.17
43772;HTU21D;59066;54.782;32.024;2023-08-20T11:04:28;32.58;72.87
43772;HTU21D;59066;54.782;32.024;2023-08-20T11:06:56;32.88;73.54
43772;HTU21D;59066;54.782;32.024;2023-08-20T11:09:26;32.79;72.36
43772;HTU21D;59066;54.782;32.024;2023-08-20T11:11:54;32.48;71.77
43772;HTU21D;59066;54.782;32.024;2023-08-20T11:14:22;32.15;71.01
43772;HTU21D;59066;54.782;32.024;2023-08-20T11:16:50;31.73;70.77
43772;HTU21D;59066;54.782;32.024;2023-08-20T11:19:22;31.26;68.15
43772;HTU21D;59066;54.782;32.024;2023-08-20T11:21:50;30.97;70.63
43772;HTU21D;59066;54.782;32.024;2023-08-20T11:24:18;30.72;70.41
43772;HTU21D;59066;54.782;32.024;2023-08-20T11:26:47;30.48;70.91
43772;HTU21D;59066;54.782;32.024;2023-08-20T11:29:15;30.22;70.74
43772;HTU21D;59066;54.782;32.024;2023-08-20T11:31:53;29.94;71.24
43772;HTU21D;59066;54.782;32.024;2023-08-20T11:34:20;29.63;71.54
43772;HTU21D;59066;54.782;32.024;2023-08-20T11:36:49;29.38;72.03
43772;HTU21D;59066;54.782;32.024;2023-08-20T11:39:17;29.14;72.78
43772;HTU21D;59066;54.782;32.024;2023-08-20T11:41:44;28.87;73.15
43772;HTU21D;59066;54.782;32.024;2023-08-20T11:44:19;28.60;71.60
43772;HTU21D;59066;54.782;32.024;2023-08-20T11:46:47;28.37;74.80
43772;HTU21D;59066;54.782;32.024;2023-08-20T11:49:15;28.15;75.24
43772;HTU21D;59066;54.782;32.024;2023-08-20T11:51:49;27.86;74.23
43772;HTU21D;59066;54.782;32.024;2023-08-20T11:54:18;27.67;76.70
43772;HTU21D;59066;54.782;32.024;2023-08-20T11:56:49;27.58;76.18
43772;HTU21D;59066;54.782;32.024;2023-08-20T11:59:20;27.44;77.39
43772;HTU21D;59066;54.782;32.024;2023-08-20T12:01:58;27.32;76.19
43772;HTU21D;59066;54.782;32.024;2023-08-20T12:04:29;27.26;78.36
43772;HTU21D;59066;54.782;32.024;2023-08-20T12:07:09;27.10;76.00
43772;HTU21D;59066;54.782;32.024;2023-08-20T12:09:38;26.93;79.05
43772;HTU21D;59066;54.782;32.024;2023-08-20T12:12:06;26.80;79.49
43772;HTU21D;59066;54.782;32.024;2023-08-20T12:14:37;26.76;79.30
43772;HTU21D;59066;54.782;32.024;2023-08-20T12:17:04;26.70;80.12
43772;HTU21D;59066;54.782;32.024;2023-08-20T12:19:32;26.69;80.41
43772;HTU21D;59066;54.782;32.024;2023-08-20T12:21:59;26.55;80.94
43772;HTU21D;59066;54.782;32.024;2023-08-20T12:24:27;26.37;81.27
43772;HTU21D;59066;54.782;32.024;2023-08-20T12:26:54;26.16;81.77
43772;HTU21D;59066;54.782;32.024;2023-08-20T12:29:22;25.92;81.17
43772;HTU21D;59066;54.782;32.024;2023-08-20T12:31:49;25.72;82.56
43772;HTU21D;59066;54.782;32.024;2023-08-20T12:34:17;25.62;83.06
43772;HTU21D;59066;54.782;32.024;2023-08-20T12:36:44;25.39;82.75
43772;HTU21D;59066;54.782;32.024;2023-08-20T12:39:11;25.10;82.29
43772;HTU21D;59066;54.782;32.024;2023-08-20T12:41:40;24.84;82.46
43772;HTU21D;59066;54.782;32.024;2023-08-20T12:44:08;24.73;83.07
43772;HTU21D;59066;54.782;32.024;2023-08-20T12:46:36;24.64;83.32
43772;HTU21D;59066;54.782;32.024;2023-08-20T12:49:03;24.58;83.92
43772;HTU21D;59066;54.782;32.024;2023-08-20T12:51:31;24.53;84.50
43772;HTU21D;59066;54.782;32.024;2023-08-20T12:53:58;24.46;84.30
43772;HTU21D;59066;54.782;32.024;2023-08-20T12:56:27;24.43;85.04
43772;HTU21D;59066;54.782;32.024;2023-08-20T12:58:54;24.23;85.66
43772;HTU21D;59066;54.782;32.024;2023-08-20T13:01:21;24.11;86.54
43772;HTU21D;59066;54.782;32.024;2023-08-20T13:03:49;24.06;87.03
43772;HTU21D;59066;54.782;32.024;2023-08-20T13:06:17;23.83;87.02
43772;HTU21D;59066;54.782;32.024;2023-08-20T13:08:45;23.43;88.03
43772;HTU21D;59066;54.782;32.024;2023-08-20T13:11:14;23.27;89.85
43772;HTU21D;59066;54.782;32.024;2023-08-20T13:13:44;23.02;90.61
43772;HTU21D;59066;54.782;32.024;2023-08-20T13:16:11;22.80;91.53
43772;HTU21D;59066;54.782;32.024;2023-08-20T13:18:39;22.72;93.00
43772;HTU21D;59066;54.782;32.024;2023-08-20T13:21:06;22.50;93.33
43772;HTU21D;59066;54.782;32.024;2023-08-20T13:23:35;22.33;94.31
43772;HTU21D;59066;54.782;32.024;2023-08-20T13:26:03;22.36;94.88
43772;HTU21D;59066;54.782;32.024;2023-08-20T13:28:31;22.24;94.56
43772;HTU21D;59066;54.782;32.024;2023-08-20T13:31:00;21.95;93.86
43772;HTU21D;59066;54.782;32.024;2023-08-20T13:33:28;21.84;94.45
43772;HTU21D;59066;54.782;32.024;2023-08-20T13:35:55;21.66;94.87
43772;HTU21D;59066;54.782;32.024;2023-08-20T13:38:24;21.64;95.20
43772;HTU21D;59066;54.782;32.024;2023-08-20T13:40:52;21.62;95.69
43772;HTU21D;59066;54.782;32.024;2023-08-20T13:43:21;21.57;95.13
43772;HTU21D;59066;54.782;32.024;2023-08-20T13:45:48;21.58;95.95
43772;HTU21D;59066;54.782;32.024;2023-08-20T13:48:15;21.65;95.87
43772;HTU21D;59066;54.782;32.024;2023-08-20T13:50:43;21.63;95.62
43772;HTU21D;59066;54.782;32.024;2023-08-20T13:53:10;21.72;96.46
43772;HTU21D;59066;54.782;32.024;2023-08-20T13:55:38;21.88;96.73
43772;HTU21D;59066;54.782;32.024;2023-08-20T13:58:05;22.03;97.14
43772;HTU21D;59066;54.782;32.024;2023-08-20T14:00:35;22.14;97.05
43772;HTU21D;59066;54.782;32.024;2023-08-20T14:03:03;22.22;96.97
43772;HTU21D;59066;54.782;32.024;2023-08-20T14:05:30;22.25;96.78
43772;HTU21D;59066;54.782;32.024;2023-08-20T14:07:58;22.31;96.71
43772;HTU21D;59066;54.782;32.024;2023-08-20T14:10:25;22.31;96.33
43772;HTU21D;59066;54.782;32.024;2023-08-20T14:12:52;22.24;96.38
43772;HTU21D;59066;54.782;32.024;2023-08-20T14:15:20;22.23;96.33
43772;HTU21D;59066;54.782;32.024;2023-08-20T14:17:47;22.24;95.99
43772;HTU21D;59066;54.782;32.024;2023-08-20T14:20:15;22.27;95.88
43772;HTU21D;59066;54.782;32.024;2023-08-20T14:22:43;22.38;96.30
43772;HTU21D;59066;54.782;32.024;2023-08-20T14:25:11;22.51;96.02
43772;HTU21D;59066;54.782;32.024;2023-08-20T14:27:38;22.75;96.29
43772;HTU21D;59066;54.782;32.024;2023-08-20T14:30:06;23.06;96.53
43772;HTU21D;59066;54.782;32.024;2023-08-20T14:32:35;23.47;96.26
43772;HTU21D;59066;54.782;32.024;2023-08-20T14:35:06;23.91;96.76
43772;HTU21D;59066;54.782;32.024;2023-08-20T14:37:34;24.16;95.17
43772;HTU21D;59066;54.782;32.024;2023-08-20T14:40:01;24.20;93.88
43772;HTU21D;59066;54.782;32.024;2023-08-20T14:42:29;24.24;92.92
43772;HTU21D;59066;54.782;32.024;2023-08-20T14:44:56;24.19;91.36
43772;HTU21D;59066;54.782;32.024;2023-08-20T14:47:23;24.13;91.37
43772;HTU21D;59066;54.782;32.024;2023-08-20T14:49:51;24.09;90.61
43772;HTU21D;59066;54.782;32.024;2023-08-20T14:52:19;24.06;90.55
43772;HTU21D;59066;54.782;32.024;2023-08-20T14:54:47;24.08;90.23
43772;HTU21D;59066;54.782;32.024;2023-08-20T14:57:14;24.10;89.77
43772;HTU21D;59066;54.782;32.024;2023-08-20T14:59:44;24.13;89.81
43772;HTU21D;59066;54.782;32.024;2023-08-20T15:02:11;24.32;89.55
43772;HTU21D;59066;54.782;32.024;2023-08-20T15:04:39;24.46;89.41
43772;HTU21D;59066;54.782;32.024;2023-08-20T15:07:06;24.73;90.18
43772;HTU21D;59066;54.782;32.024;2023-08-20T15:09:34;25.52;90.77
43772;HTU21D;59066;54.782;32.024;2023-08-20T15:12:02;26.25;90.66
43772;HTU21D;59066;54.782;32.024;2023-08-20T15:14:30;26.92;90.31
43772;HTU21D;59066;54.782;32.024;2023-08-20T15:16:57;27.40;89.19
43772;HTU21D;59066;54.782;32.024;2023-08-20T15:19:25;27.94;88.71
43772;HTU21D;59066;54.782;32.024;2023-08-20T15:21:52;28.14;85.76
43772;HTU21D;59066;54.782;32.024;2023-08-20T15:24:19;28.31;85.88
43772;HTU21D;59066;54.782;32.024;2023-08-20T15:26:47;28.48;83.37
43772;HTU21D;59066;54.782;32.024;2023-08-20T15:29:14;28.54;82.68
43772;HTU21D;59066;54.782;32.024;2023-08-20T15:31:42;28.59;83.21